sensor_id;sensor_type;location;lat;lon;timestamp;temperature;humidity
10662;DHT22;5379;51.034;7.006;2023-06-14T00:00:17;26.70;81.20
10662;DHT22;5379;51.034;7.006;2023-06-14T04:35:05;24.50;85.10
10662;DHT22;5379;51.034;7.006;2023-06-14T04:37:32;24.60;83.80
10662;DHT22;5379;51.034;7.006;2023-06-14T04:40:00;24.40;84.50
10662;DHT22;5379;51.034;7.006;2023-06-14T04:42:27;24.30;84.60
10662;DHT22;5379;51.034;7.006;2023-06-14T04:44:56;24.20;84.10
10662;DHT22;5379;51.034;7.006;2023-06-14T04:47:23;24.20;84.60
10662;DHT22;5379;51.034;7.006;2023-06-14T04:49:57;24.50;86.60
10662;DHT22;5379;51.034;7.006;2023-06-14T04:52:26;25.10;83.00
10662;DHT22;5379;51.034;7.006;2023-06-14T04:54:55;24.20;83.00
10662;DHT22;5379;51.034;7.006;2023-06-14T04:57:22;24.10;83.80
10662;DHT22;5379;51.034;7.006;2023-06-14T04:59:51;24.30;84.10
10662;DHT22;5379;51.034;7.006;2023-06-14T05:02:21;24.80;83.30
10662;DHT22;5379;51.034;7.006;2023-06-14T05:04:48;24.40;83.30
10662;DHT22;5379;51.034;7.006;2023-06-14T05:07:16;24.30;83.90
10662;DHT22;5379;51.034;7.006;2023-06-14T05:09:44;24.40;83.40
10662;DHT22;5379;51.034;7.006;2023-06-14T05:12:12;24.30;83.10
10662;DHT22;5379;51.034;7.006;2023-06-14T05:14:39;24.20;83.00
10662;DHT22;5379;51.034;7.006;2023-06-14T05:17:06;25.00;88.40
10662;DHT22;5379;51.034;7.006;2023-06-14T05:19:33;25.10;82.50
10662;DHT22;5379;51.034;7.006;2023-06-14T05:22:00;25.70;82.20
10662;DHT22;5379;51.034;7.006;2023-06-14T05:24:29;25.20;81.60
10662;DHT22;5379;51.034;7.006;2023-06-14T05:26:57;25.30;83.60
10662;DHT22;5379;51.034;7.006;2023-06-14T05:29:24;25.40;81.80
10662;DHT22;5379;51.034;7.006;2023-06-14T05:31:51;25.90;83.70
10662;DHT22;5379;51.034;7.006;2023-06-14T05:34:18;25.70;82.90
10662;DHT22;5379;51.034;7.006;2023-06-14T05:36:46;25.70;83.10
10662;DHT22;5379;51.034;7.006;2023-06-14T05:39:13;25.40;81.20
10662;DHT22;5379;51.034;7.006;2023-06-14T05:41:41;24.90;84.50
10662;DHT22;5379;51.034;7.006;2023-06-14T05:44:09;25.40;86.70
10662;DHT22;5379;51.034;7.006;2023-06-14T05:46:36;25.90;87.00
10662;DHT22;5379;51.034;7.006;2023-06-14T05:49:05;25.60;83.30
10662;DHT22;5379;51.034;7.006;2023-06-14T05:51:32;24.60;83.40
10662;DHT22;5379;51.034;7.006;2023-06-14T05:53:59;24.20;85.00
10662;DHT22;5379;51.034;7.006;2023-06-14T05:56:26;24.40;83.20
10662;DHT22;5379;51.034;7.006;2023-06-14T05:58:54;24.80;84.70
10662;DHT22;5379;51.034;7.006;2023-06-14T06:01:21;25.20;83.50
10662;DHT22;5379;51.034;7.006;2023-06-14T06:03:48;25.40;82.90
10662;DHT22;5379;51.034;7.006;2023-06-14T06:06:15;25.20;89.50
10662;DHT22;5379;51.034;7.006;2023-06-14T06:08:43;25.60;83.40
10662;DHT22;5379;51.034;7.006;2023-06-14T06:11:10;25.30;83.20
10662;DHT22;5379;51.034;7.006;2023-06-14T06:13:37;25.80;88.30
10662;DHT22;5379;51.034;7.006;2023-06-14T06:16:06;25.50;84.40
10662;DHT22;5379;51.034;7.006;2023-06-14T06:18:32;25.20;85.40
10662;DHT22;5379;51.034;7.006;2023-06-14T06:21:00;24.70;83.20
10662;DHT22;5379;51.034;7.006;2023-06-14T06:23:28;24.40;84.00
10662;DHT22;5379;51.034;7.006;2023-06-14T06:25:55;24.30;84.60
10662;DHT22;5379;51.034;7.006;2023-06-14T06:28:22;24.40;84.60
10662;DHT22;5379;51.034;7.006;2023-06-14T06:30:49;24.90;85.00
10662;DHT22;5379;51.034;7.006;2023-06-14T06:33:17;25.20;83.40
10662;DHT22;5379;51.034;7.006;2023-06-14T06:35:44;25.50;84.10
10662;DHT22;5379;51.034;7.006;2023-06-14T06:38:11;26.20;88.80
10662;DHT22;5379;51.034;7.006;2023-06-14T06:40:39;26.90;88.20
10662;DHT22;5379;51.034;7.006;2023-06-14T06:43:06;27.00;88.20
10662;DHT22;5379;51.034;7.006;2023-06-14T06:45:32;26.50;83.70
10662;DHT22;5379;51.034;7.006;2023-06-14T06:47:59;26.50;90.00
10662;DHT22;5379;51.034;7.006;2023-06-14T06:50:28;26.50;81.30
10662;DHT22;5379;51.034;7.006;2023-06-14T06:52:56;26.50;82.10
10662;DHT22;5379;51.034;7.006;2023-06-14T06:55:23;26.80;84.10
10662;DHT22;5379;51.034;7.006;2023-06-14T06:57:50;26.80;83.70
10662;DHT22;5379;51.034;7.006;2023-06-14T07:00:18;26.00;81.30
10662;DHT22;5379;51.034;7.006;2023-06-14T07:02:45;26.50;88.10
10662;DHT22;5379;51.034;7.006;2023-06-14T07:05:12;26.90;81.50
10662;DHT22;5379;51.034;7.006;2023-06-14T07:07:41;26.70;87.10
10662;DHT22;5379;51.034;7.006;2023-06-14T07:10:08;26.80;82.90
10662;DHT22;5379;51.034;7.006;2023-06-14T07:12:34;27.20;88.70
10662;DHT22;5379;51.034;7.006;2023-06-14T07:15:06;27.50;90.00
10662;DHT22;5379;51.034;7.006;2023-06-14T07:17:33;27.00;85.50
10662;DHT22;5379;51.034;7.006;2023-06-14T07:20:01;25.70;82.10
10662;DHT22;5379;51.034;7.006;2023-06-14T07:22:37;25.60;88.80
10662;DHT22;5379;51.034;7.006;2023-06-14T07:25:08;25.60;81.00
10662;DHT22;5379;51.034;7.006;2023-06-14T07:27:35;25.10;82.40
10662;DHT22;5379;51.034;7.006;2023-06-14T07:30:02;24.90;82.60
10662;DHT22;5379;51.034;7.006;2023-06-14T07:32:29;24.60;81.20
10662;DHT22;5379;51.034;7.006;2023-06-14T07:34:56;25.00;81.20
10662;DHT22;5379;51.034;7.006;2023-06-14T07:37:23;25.70;83.00
10662;DHT22;5379;51.034;7.006;2023-06-14T07:39:50;25.80;81.30
10662;DHT22;5379;51.034;7.006;2023-06-14T07:42:18;25.70;86.10
10662;DHT22;5379;51.034;7.006;2023-06-14T07:44:46;25.70;90.00
10662;DHT22;5379;51.034;7.006;2023-06-14T07:47:13;25.80;88.80
10662;DHT22;5379;51.034;7.006;2023-06-14T07:49:40;26.20;88.30
10662;DHT22;5379;51.034;7.006;2023-06-14T07:52:07;25.80;78.80
10662;DHT22;5379;51.034;7.006;2023-06-14T07:54:34;26.30;87.00
10662;DHT22;5379;51.034;7.006;2023-06-14T07:57:01;26.20;85.10
10662;DHT22;5379;51.034;7.006;2023-06-14T07:59:30;26.30;82.90
10662;DHT22;5379;51.034;7.006;2023-06-14T08:01:57;26.40;88.90
10662;DHT22;5379;51.034;7.006;2023-06-14T08:04:24;26.60;87.50
10662;DHT22;5379;51.034;7.006;2023-06-14T08:06:51;26.40;86.60
10662;DHT22;5379;51.034;7.006;2023-06-14T08:09:18;25.90;75.40
10662;DHT22;5379;51.034;7.006;2023-06-14T08:11:45;26.30;81.80
10662;DHT22;5379;51.034;7.006;2023-06-14T08:14:12;25.70;73.50
10662;DHT22;5379;51.034;7.006;2023-06-14T08:16:41;25.50;75.70
10662;DHT22;5379;51.034;7.006;2023-06-14T08:19:08;25.00;73.60
10662;DHT22;5379;51.034;7.006;2023-06-14T08:21:34;24.80;72.60
10662;DHT22;5379;51.034;7.006;2023-06-14T08:24:02;24.70;73.20
10662;DHT22;5379;51.034;7.006;2023-06-14T08:26:29;25.50;84.90
10662;DHT22;5379;51.034;7.006;2023-06-14T08:28:57;25.80;87.60
10662;DHT22;5379;51.034;7.006;2023-06-14T08:31:24;25.10;73.10
10662;DHT22;5379;51.034;7.006;2023-06-14T08:33:52;25.60;76.20
10662;DHT22;5379;51.034;7.006;2023-06-14T08:36:19;26.10;82.70
10662;DHT22;5379;51.034;7.006;2023-06-14T08:38:47;25.70;73.80
10662;DHT22;5379;51.034;7.006;2023-06-14T08:41:20;25.30;74.70
10662;DHT22;5379;51.034;7.006;2023-06-14T08:43:47;25.50;83.20
10662;DHT22;5379;51.034;7.006;2023-06-14T08:46:17;26.10;88.10
10662;DHT22;5379;51.034;7.006;2023-06-14T08:48:46;26.50;90.00
10662;DHT22;5379;51.034;7.006;2023-06-14T08:51:17;25.90;78.40
10662;DHT22;5379;51.034;7.006;2023-06-14T08:53:45;25.50;82.80
10662;DHT22;5379;51.034;7.006;2023-06-14T08:56:12;26.50;89.60
10662;DHT22;5379;51.034;7.006;2023-06-14T08:58:42;26.20;73.80
10662;DHT22;5379;51.034;7.006;2023-06-14T09:01:10;25.90;75.30
10662;DHT22;5379;51.034;7.006;2023-06-14T09:03:40;26.20;79.30
10662;DHT22;5379;51.034;7.006;2023-06-14T09:06:07;26.80;77.00
10662;DHT22;5379;51.034;7.006;2023-06-14T09:08:40;26.70;74.90
10662;DHT22;5379;51.034;7.006;2023-06-14T09:11:10;25.70;74.50
10662;DHT22;5379;51.034;7.006;2023-06-14T09:13:38;25.80;85.40
10662;DHT22;5379;51.034;7.006;2023-06-14T09:16:05;25.50;76.00
10662;DHT22;5379;51.034;7.006;2023-06-14T09:18:36;25.60;76.30
10662;DHT22;5379;51.034;7.006;2023-06-14T09:21:05;25.30;77.60
10662;DHT22;5379;51.034;7.006;2023-06-14T09:23:36;26.00;80.00
10662;DHT22;5379;51.034;7.006;2023-06-14T09:26:08;25.80;75.80
10662;DHT22;5379;51.034;7.006;2023-06-14T09:28:36;25.80;89.50
10662;DHT22;5379;51.034;7.006;2023-06-14T09:31:03;26.20;80.60
10662;DHT22;5379;51.034;7.006;2023-06-14T09:33:31;25.70;76.50
10662;DHT22;5379;51.034;7.006;2023-06-14T09:35:58;25.80;77.10
10662;DHT22;5379;51.034;7.006;2023-06-14T09:38:25;26.20;87.70
10662;DHT22;5379;51.034;7.006;2023-06-14T09:40:54;26.40;86.10
10662;DHT22;5379;51.034;7.006;2023-06-14T09:43:23;26.10;77.40
10662;DHT22;5379;51.034;7.006;2023-06-14T09:45:52;25.70;77.70
10662;DHT22;5379;51.034;7.006;2023-06-14T09:48:20;26.20;78.20
10662;DHT22;5379;51.034;7.006;2023-06-14T09:50:50;26.30;78.10
10662;DHT22;5379;51.034;7.006;2023-06-14T09:53:21;25.90;78.20
10662;DHT22;5379;51.034;7.006;2023-06-14T09:55:49;25.90;78.40
10662;DHT22;5379;51.034;7.006;2023-06-14T09:58:18;26.10;84.10
10662;DHT22;5379;51.034;7.006;2023-06-14T10:00:50;26.30;76.50
10662;DHT22;5379;51.034;7.006;2023-06-14T10:03:22;26.30;77.00
10662;DHT22;5379;51.034;7.006;2023-06-14T10:05:51;26.60;84.90
10662;DHT22;5379;51.034;7.006;2023-06-14T10:08:21;26.00;77.70
10662;DHT22;5379;51.034;7.006;2023-06-14T10:10:51;26.10;81.20
10662;DHT22;5379;51.034;7.006;2023-06-14T10:13:18;26.40;87.70
10662;DHT22;5379;51.034;7.006;2023-06-14T10:15:57;26.80;79.30
10662;DHT22;5379;51.034;7.006;2023-06-14T10:18:31;26.70;86.70
10662;DHT22;5379;51.034;7.006;2023-06-14T10:21:05;26.80;84.40
10662;DHT22;5379;51.034;7.006;2023-06-14T10:23:37;25.90;80.20
10662;DHT22;5379;51.034;7.006;2023-06-14T10:26:07;25.90;81.10
10662;DHT22;5379;51.034;7.006;2023-06-14T10:28:37;25.70;81.70
10662;DHT22;5379;51.034;7.006;2023-06-14T10:31:10;25.40;81.40
10662;DHT22;5379;51.034;7.006;2023-06-14T10:33:41;25.50;85.70
10662;DHT22;5379;51.034;7.006;2023-06-14T10:36:26;26.10;81.90
10662;DHT22;5379;51.034;7.006;2023-06-14T10:38:57;26.10;82.00
10662;DHT22;5379;51.034;7.006;2023-06-14T10:41:26;25.80;81.40
10662;DHT22;5379;51.034;7.006;2023-06-14T10:46:59;26.20;86.60
10662;DHT22;5379;51.034;7.006;2023-06-14T10:49:43;27.00;78.60
10662;DHT22;5379;51.034;7.006;2023-06-14T10:52:15;27.00;86.70
10662;DHT22;5379;51.034;7.006;2023-06-14T10:55:11;27.00;75.40
10662;DHT22;5379;51.034;7.006;2023-06-14T10:57:42;27.00;86.10
10662;DHT22;5379;51.034;7.006;2023-06-14T11:00:10;27.30;85.00
10662;DHT22;5379;51.034;7.006;2023-06-14T11:05:50;27.10;86.80
10662;DHT22;5379;51.034;7.006;2023-06-14T11:08:44;27.00;77.20
10662;DHT22;5379;51.034;7.006;2023-06-14T11:11:15;26.40;76.70
10662;DHT22;5379;51.034;7.006;2023-06-14T11:13:44;27.00;87.20
10662;DHT22;5379;51.034;7.006;2023-06-14T11:16:13;27.40;79.00
10662;DHT22;5379;51.034;7.006;2023-06-14T11:18:40;27.60;89.40
10662;DHT22;5379;51.034;7.006;2023-06-14T11:21:09;27.50;87.00
10662;DHT22;5379;51.034;7.006;2023-06-14T11:23:36;27.30;90.60
10662;DHT22;5379;51.034;7.006;2023-06-14T11:26:03;27.20;90.50
10662;DHT22;5379;51.034;7.006;2023-06-14T11:28:37;27.00;84.10
10662;DHT22;5379;51.034;7.006;2023-06-14T11:31:06;27.10;84.90
10662;DHT22;5379;51.034;7.006;2023-06-14T11:33:33;27.40;87.00
10662;DHT22;5379;51.034;7.006;2023-06-14T11:36:02;26.70;85.90
10662;DHT22;5379;51.034;7.006;2023-06-14T11:38:35;26.40;83.10
10662;DHT22;5379;51.034;7.006;2023-06-14T11:41:02;26.10;81.00
10662;DHT22;5379;51.034;7.006;2023-06-14T11:43:29;26.40;81.80
10662;DHT22;5379;51.034;7.006;2023-06-14T11:45:58;26.60;88.50
10662;DHT22;5379;51.034;7.006;2023-06-14T11:48:36;26.00;78.40
10662;DHT22;5379;51.034;7.006;2023-06-14T11:51:03;25.80;80.90
10662;DHT22;5379;51.034;7.006;2023-06-14T11:53:32;26.60;84.60
10662;DHT22;5379;51.034;7.006;2023-06-14T11:55:59;27.20;89.80
10662;DHT22;5379;51.034;7.006;2023-06-14T11:58:27;26.50;78.50
10662;DHT22;5379;51.034;7.006;2023-06-14T12:00:56;27.10;84.30
10662;DHT22;5379;51.034;7.006;2023-06-14T12:03:23;27.30;89.00
10662;DHT22;5379;51.034;7.006;2023-06-14T12:06:02;27.40;77.90
10662;DHT22;5379;51.034;7.006;2023-06-14T12:08:34;27.60;81.80
10662;DHT22;5379;51.034;7.006;2023-06-14T12:11:11;27.50;78.40
10662;DHT22;5379;51.034;7.006;2023-06-14T12:13:39;27.20;76.70
10662;DHT22;5379;51.034;7.006;2023-06-14T12:16:07;26.90;74.80
10662;DHT22;5379;51.034;7.006;2023-06-14T12:18:35;26.60;73.70
10662;DHT22;5379;51.034;7.006;2023-06-14T12:21:04;26.70;74.40
10662;DHT22;5379;51.034;7.006;2023-06-14T12:23:46;26.70;80.90
10662;DHT22;5379;51.034;7.006;2023-06-14T12:26:14;27.20;81.40
10662;DHT22;5379;51.034;7.006;2023-06-14T12:28:42;27.00;83.00
10662;DHT22;5379;51.034;7.006;2023-06-14T12:31:10;26.90;74.80
10662;DHT22;5379;51.034;7.006;2023-06-14T12:33:39;27.00;76.00
10662;DHT22;5379;51.034;7.006;2023-06-14T12:36:08;27.00;76.60
10662;DHT22;5379;51.034;7.006;2023-06-14T12:38:41;26.30;76.00
10662;DHT22;5379;51.034;7.006;2023-06-14T12:43:43;27.00;73.90
10662;DHT22;5379;51.034;7.006;2023-06-14T12:46:10;27.30;76.80
10662;DHT22;5379;51.034;7.006;2023-06-14T12:48:37;27.50;78.60
10662;DHT22;5379;51.034;7.006;2023-06-14T12:51:04;26.90;76.90
10662;DHT22;5379;51.034;7.006;2023-06-14T12:53:31;27.10;80.40
10662;DHT22;5379;51.034;7.006;2023-06-14T12:58:30;27.00;76.40
10662;DHT22;5379;51.034;7.006;2023-06-14T13:00:57;27.00;75.50
10662;DHT22;5379;51.034;7.006;2023-06-14T13:03:24;26.90;76.10
10662;DHT22;5379;51.034;7.006;2023-06-14T13:05:51;26.90;76.20
10662;DHT22;5379;51.034;7.006;2023-06-14T13:08:17;26.90;81.00
10662;DHT22;5379;51.034;7.006;2023-06-14T13:10:45;27.60;86.70
10662;DHT22;5379;51.034;7.006;2023-06-14T13:13:12;27.60;79.60
10662;DHT22;5379;51.034;7.006;2023-06-14T13:15:40;27.80;89.40
10662;DHT22;5379;51.034;7.006;2023-06-14T13:18:07;27.70;86.60
10662;DHT22;5379;51.034;7.006;2023-06-14T13:20:34;27.20;89.50
10662;DHT22;5379;51.034;7.006;2023-06-14T13:23:01;27.20;86.30
10662;DHT22;5379;51.034;7.006;2023-06-14T13:25:29;27.00;90.90
10662;DHT22;5379;51.034;7.006;2023-06-14T13:27:56;26.60;83.10
10662;DHT22;5379;51.034;7.006;2023-06-14T13:30:23;27.00;90.90
10662;DHT22;5379;51.034;7.006;2023-06-14T13:32:51;27.00;81.30
10662;DHT22;5379;51.034;7.006;2023-06-14T13:35:19;27.40;85.60
10662;DHT22;5379;51.034;7.006;2023-06-14T13:37:46;27.50;84.30
10662;DHT22;5379;51.034;7.006;2023-06-14T13:40:13;27.40;86.00
10662;DHT22;5379;51.034;7.006;2023-06-14T13:42:40;27.30;90.60
10662;DHT22;5379;51.034;7.006;2023-06-14T13:45:08;27.20;87.60
10662;DHT22;5379;51.034;7.006;2023-06-14T13:47:35;27.00;79.80
10662;DHT22;5379;51.034;7.006;2023-06-14T13:50:04;27.60;89.80
10662;DHT22;5379;51.034;7.006;2023-06-14T13:52:31;27.70;87.90
10662;DHT22;5379;51.034;7.006;2023-06-14T13:54:58;27.70;87.90
10662;DHT22;5379;51.034;7.006;2023-06-14T13:57:25;27.50;90.50
10662;DHT22;5379;51.034;7.006;2023-06-14T13:59:52;27.50;90.80
10662;DHT22;5379;51.034;7.006;2023-06-14T14:02:21;27.20;82.50
10662;DHT22;5379;51.034;7.006;2023-06-14T14:04:48;27.10;80.50
10662;DHT22;5379;51.034;7.006;2023-06-14T14:07:20;27.10;88.40
10662;DHT22;5379;51.034;7.006;2023-06-14T14:09:47;26.70;77.40
10662;DHT22;5379;51.034;7.006;2023-06-14T14:12:14;26.70;77.00
10662;DHT22;5379;51.034;7.006;2023-06-14T14:14:41;26.90;76.90
10662;DHT22;5379;51.034;7.006;2023-06-14T14:17:08;27.20;77.70
10662;DHT22;5379;51.034;7.006;2023-06-14T14:19:35;27.80;86.00
10662;DHT22;5379;51.034;7.006;2023-06-14T14:22:02;27.60;81.70
10662;DHT22;5379;51.034;7.006;2023-06-14T14:24:31;28.20;90.10
10662;DHT22;5379;51.034;7.006;2023-06-14T14:26:57;28.10;87.60
10662;DHT22;5379;51.034;7.006;2023-06-14T14:29:25;28.10;90.00
10662;DHT22;5379;51.034;7.006;2023-06-14T14:31:54;27.60;77.60
10662;DHT22;5379;51.034;7.006;2023-06-14T14:34:22;27.20;75.50
10662;DHT22;5379;51.034;7.006;2023-06-14T14:36:49;27.20;75.90
10662;DHT22;5379;51.034;7.006;2023-06-14T14:39:15;27.20;84.30
10662;DHT22;5379;51.034;7.006;2023-06-14T14:41:44;27.10;82.50
10662;DHT22;5379;51.034;7.006;2023-06-14T14:46:38;27.40;85.40
10662;DHT22;5379;51.034;7.006;2023-06-14T14:49:05;28.00;87.30
10662;DHT22;5379;51.034;7.006;2023-06-14T14:51:32;27.70;89.50
10662;DHT22;5379;51.034;7.006;2023-06-14T14:53:59;27.60;85.90
10662;DHT22;5379;51.034;7.006;2023-06-14T14:56:26;27.70;89.40
10662;DHT22;5379;51.034;7.006;2023-06-14T14:58:54;27.80;89.80
10662;DHT22;5379;51.034;7.006;2023-06-14T15:01:21;27.70;90.00
10662;DHT22;5379;51.034;7.006;2023-06-14T15:03:48;27.80;84.80
10662;DHT22;5379;51.034;7.006;2023-06-14T15:06:15;27.80;90.40
10662;DHT22;5379;51.034;7.006;2023-06-14T15:08:43;27.70;91.20
10662;DHT22;5379;51.034;7.006;2023-06-14T15:11:10;27.90;90.60
10662;DHT22;5379;51.034;7.006;2023-06-14T15:13:37;27.90;90.60
10662;DHT22;5379;51.034;7.006;2023-06-14T15:16:05;27.50;83.50
10662;DHT22;5379;51.034;7.006;2023-06-14T15:18:32;27.50;85.40
10662;DHT22;5379;51.034;7.006;2023-06-14T15:20:59;27.20;84.50
10662;DHT22;5379;51.034;7.006;2023-06-14T15:23:26;27.40;82.50
10662;DHT22;5379;51.034;7.006;2023-06-14T15:25:53;27.70;91.10
10662;DHT22;5379;51.034;7.006;2023-06-14T15:30:49;27.40;83.50
10662;DHT22;5379;51.034;7.006;2023-06-14T15:33:18;27.50;76.40
10662;DHT22;5379;51.034;7.006;2023-06-14T15:35:46;27.80;79.20
10662;DHT22;5379;51.034;7.006;2023-06-14T15:38:15;27.80;79.90
10662;DHT22;5379;51.034;7.006;2023-06-14T15:43:09;27.90;78.20
10662;DHT22;5379;51.034;7.006;2023-06-14T15:45:36;28.10;90.40
10662;DHT22;5379;51.034;7.006;2023-06-14T15:48:05;28.00;86.20
10662;DHT22;5379;51.034;7.006;2023-06-14T15:50:34;27.40;77.80
10662;DHT22;5379;51.034;7.006;2023-06-14T15:53:02;27.30;83.40
10662;DHT22;5379;51.034;7.006;2023-06-14T15:57:56;27.00;89.80
10662;DHT22;5379;51.034;7.006;2023-06-14T16:00:23;27.20;88.60
10662;DHT22;5379;51.034;7.006;2023-06-14T16:02:51;27.30;88.70
10662;DHT22;5379;51.034;7.006;2023-06-14T16:05:18;27.30;79.00
10662;DHT22;5379;51.034;7.006;2023-06-14T16:07:46;27.60;85.90
10662;DHT22;5379;51.034;7.006;2023-06-14T16:10:13;27.60;81.40
10662;DHT22;5379;51.034;7.006;2023-06-14T16:12:40;27.70;76.90
10662;DHT22;5379;51.034;7.006;2023-06-14T16:15:08;27.90;83.20
10662;DHT22;5379;51.034;7.006;2023-06-14T16:17:35;28.00;75.10
10662;DHT22;5379;51.034;7.006;2023-06-14T16:20:02;28.30;90.10
10662;DHT22;5379;51.034;7.006;2023-06-14T16:22:30;28.00;79.50
10662;DHT22;5379;51.034;7.006;2023-06-14T16:24:58;28.50;86.70
10662;DHT22;5379;51.034;7.006;2023-06-14T16:27:25;28.40;86.40
10662;DHT22;5379;51.034;7.006;2023-06-14T16:29:52;28.10;81.00
10662;DHT22;5379;51.034;7.006;2023-06-14T16:32:19;28.20;78.40
10662;DHT22;5379;51.034;7.006;2023-06-14T16:34:46;28.30;88.70
10662;DHT22;5379;51.034;7.006;2023-06-14T16:40:37;28.20;89.00
10662;DHT22;5379;51.034;7.006;2023-06-14T16:43:04;28.20;89.60
10662;DHT22;5379;51.034;7.006;2023-06-14T16:45:31;28.30;77.40
10662;DHT22;5379;51.034;7.006;2023-06-14T16:47:58;28.40;76.60
10662;DHT22;5379;51.034;7.006;2023-06-14T16:50:25;28.10;74.60
10662;DHT22;5379;51.034;7.006;2023-06-14T16:52:52;28.30;74.10
10662;DHT22;5379;51.034;7.006;2023-06-14T16:55:19;28.70;89.50
10662;DHT22;5379;51.034;7.006;2023-06-14T16:57:48;28.20;80.00
10662;DHT22;5379;51.034;7.006;2023-06-14T17:00:16;28.10;90.00
10662;DHT22;5379;51.034;7.006;2023-06-14T17:02:43;27.90;81.70
10662;DHT22;5379;51.034;7.006;2023-06-14T17:05:11;28.00;86.20
10662;DHT22;5379;51.034;7.006;2023-06-14T17:07:39;27.70;73.60
10662;DHT22;5379;51.034;7.006;2023-06-14T17:10:07;27.60;74.20
10662;DHT22;5379;51.034;7.006;2023-06-14T17:12:34;27.80;74.60
10662;DHT22;5379;51.034;7.006;2023-06-14T17:15:04;28.00;84.80
10662;DHT22;5379;51.034;7.006;2023-06-14T17:17:32;28.70;85.80
10662;DHT22;5379;51.034;7.006;2023-06-14T17:19:59;28.50;77.30
10662;DHT22;5379;51.034;7.006;2023-06-14T17:22:26;28.40;86.60
10662;DHT22;5379;51.034;7.006;2023-06-14T17:24:53;27.90;84.00
10662;DHT22;5379;51.034;7.006;2023-06-14T17:27:20;28.00;90.20
10662;DHT22;5379;51.034;7.006;2023-06-14T17:29:47;27.90;90.80
10662;DHT22;5379;51.034;7.006;2023-06-14T17:32:16;27.80;90.20
10662;DHT22;5379;51.034;7.006;2023-06-14T17:34:43;27.70;88.50
10662;DHT22;5379;51.034;7.006;2023-06-14T17:37:10;27.40;81.60
10662;DHT22;5379;51.034;7.006;2023-06-14T17:39:38;27.30;88.30
10662;DHT22;5379;51.034;7.006;2023-06-14T17:42:07;26.90;79.90
10662;DHT22;5379;51.034;7.006;2023-06-14T17:44:34;27.00;74.10
10662;DHT22;5379;51.034;7.006;2023-06-14T17:47:01;27.80;81.40
10662;DHT22;5379;51.034;7.006;2023-06-14T17:49:30;27.70;74.00
10662;DHT22;5379;51.034;7.006;2023-06-14T17:51:58;27.60;73.30
10662;DHT22;5379;51.034;7.006;2023-06-14T17:54:25;28.10;74.60
10662;DHT22;5379;51.034;7.006;2023-06-14T17:56:52;28.50;84.90
10662;DHT22;5379;51.034;7.006;2023-06-14T17:59:19;28.50;90.10
10662;DHT22;5379;51.034;7.006;2023-06-14T18:01:46;28.40;86.50
10662;DHT22;5379;51.034;7.006;2023-06-14T18:04:13;28.60;89.10
10662;DHT22;5379;51.034;7.006;2023-06-14T18:06:42;28.70;90.00
10662;DHT22;5379;51.034;7.006;2023-06-14T18:09:09;28.30;79.30
10662;DHT22;5379;51.034;7.006;2023-06-14T18:11:36;28.30;75.80
10662;DHT22;5379;51.034;7.006;2023-06-14T18:14:03;28.60;85.90
10662;DHT22;5379;51.034;7.006;2023-06-14T18:16:30;28.90;85.40
10662;DHT22;5379;51.034;7.006;2023-06-14T18:18:58;28.80;78.20
10662;DHT22;5379;51.034;7.006;2023-06-14T18:21:25;28.10;80.10
10662;DHT22;5379;51.034;7.006;2023-06-14T18:23:54;28.40;90.00
10662;DHT22;5379;51.034;7.006;2023-06-14T18:26:23;28.20;85.50
10662;DHT22;5379;51.034;7.006;2023-06-14T18:28:52;28.20;78.70
10662;DHT22;5379;51.034;7.006;2023-06-14T18:31:19;28.30;82.10
10662;DHT22;5379;51.034;7.006;2023-06-14T18:33:46;28.10;75.30
10662;DHT22;5379;51.034;7.006;2023-06-14T18:36:13;28.00;76.30
10662;DHT22;5379;51.034;7.006;2023-06-14T18:38:41;28.30;82.90
10662;DHT22;5379;51.034;7.006;2023-06-14T18:41:10;27.70;73.60
10662;DHT22;5379;51.034;7.006;2023-06-14T18:43:37;27.90;74.80
10662;DHT22;5379;51.034;7.006;2023-06-14T18:46:04;27.90;75.30
10662;DHT22;5379;51.034;7.006;2023-06-14T18:48:31;28.10;80.20
10662;DHT22;5379;51.034;7.006;2023-06-14T18:50:59;28.20;85.10
10662;DHT22;5379;51.034;7.006;2023-06-14T18:53:26;27.80;75.40
10662;DHT22;5379;51.034;7.006;2023-06-14T18:55:53;27.90;75.40
10662;DHT22;5379;51.034;7.006;2023-06-14T18:58:22;28.20;80.40
10662;DHT22;5379;51.034;7.006;2023-06-14T19:00:50;28.60;84.80
10662;DHT22;5379;51.034;7.006;2023-06-14T19:03:17;28.30;77.40
10662;DHT22;5379;51.034;7.006;2023-06-14T19:05:45;28.10;75.40
10662;DHT22;5379;51.034;7.006;2023-06-14T19:08:12;27.80;75.20
10662;DHT22;5379;51.034;7.006;2023-06-14T19:10:39;28.10;75.40
10662;DHT22;5379;51.034;7.006;2023-06-14T19:13:06;28.10;77.30
10662;DHT22;5379;51.034;7.006;2023-06-14T19:15:38;28.20;79.30
10662;DHT22;5379;51.034;7.006;2023-06-14T19:18:05;28.50;76.70
10662;DHT22;5379;51.034;7.006;2023-06-14T19:20:33;28.00;75.10
10662;DHT22;5379;51.034;7.006;2023-06-14T19:23:00;28.00;75.60
10662;DHT22;5379;51.034;7.006;2023-06-14T19:25:28;28.10;77.50
10662;DHT22;5379;51.034;7.006;2023-06-14T19:27:55;28.20;78.00
10662;DHT22;5379;51.034;7.006;2023-06-14T19:30:23;28.50;88.80
10662;DHT22;5379;51.034;7.006;2023-06-14T19:32:51;28.00;77.00
10662;DHT22;5379;51.034;7.006;2023-06-14T19:35:18;28.20;79.70
10662;DHT22;5379;51.034;7.006;2023-06-14T19:37:47;28.20;88.30
10662;DHT22;5379;51.034;7.006;2023-06-14T19:40:14;28.40;78.00
10662;DHT22;5379;51.034;7.006;2023-06-14T19:42:41;27.60;77.50
10662;DHT22;5379;51.034;7.006;2023-06-14T19:45:09;28.00;82.80
10662;DHT22;5379;51.034;7.006;2023-06-14T19:47:36;27.80;79.50
10662;DHT22;5379;51.034;7.006;2023-06-14T19:50:06;27.70;77.70
10662;DHT22;5379;51.034;7.006;2023-06-14T19:52:34;27.60;78.00
10662;DHT22;5379;51.034;7.006;2023-06-14T19:55:01;27.70;80.00
10662;DHT22;5379;51.034;7.006;2023-06-14T19:57:28;27.50;77.70
10662;DHT22;5379;51.034;7.006;2023-06-14T19:59:55;27.20;78.70
10662;DHT22;5379;51.034;7.006;2023-06-14T20:02:22;27.40;78.70
10662;DHT22;5379;51.034;7.006;2023-06-14T20:04:50;27.60;80.80
10662;DHT22;5379;51.034;7.006;2023-06-14T20:07:18;27.20;81.90
10662;DHT22;5379;51.034;7.006;2023-06-14T20:09:45;26.90;79.30
10662;DHT22;5379;51.034;7.006;2023-06-14T20:12:12;26.80;83.50
10662;DHT22;5379;51.034;7.006;2023-06-14T20:14:40;27.00;81.10
10662;DHT22;5379;51.034;7.006;2023-06-14T20:17:07;26.70;79.80
10662;DHT22;5379;51.034;7.006;2023-06-14T20:19:34;26.60;80.20
10662;DHT22;5379;51.034;7.006;2023-06-14T20:22:01;25.90;81.00
10662;DHT22;5379;51.034;7.006;2023-06-14T20:24:30;26.00;82.00
10662;DHT22;5379;51.034;7.006;2023-06-14T20:26:57;25.90;81.80
10662;DHT22;5379;51.034;7.006;2023-06-14T20:29:24;25.70;82.20
10662;DHT22;5379;51.034;7.006;2023-06-14T20:31:52;25.90;80.90
10662;DHT22;5379;51.034;7.006;2023-06-14T20:34:19;25.90;81.60
10662;DHT22;5379;51.034;7.006;2023-06-14T20:36:46;26.60;82.30
10662;DHT22;5379;51.034;7.006;2023-06-14T20:39:13;26.40;80.90
10662;DHT22;5379;51.034;7.006;2023-06-14T20:41:42;26.00;81.40
10662;DHT22;5379;51.034;7.006;2023-06-14T20:44:09;26.10;82.20
10662;DHT22;5379;51.034;7.006;2023-06-14T20:46:37;26.40;81.40